createdAt,value
2023-04-08T06:29:25.442Z,98738.00
2023-04-08T06:31:53.125Z,98735.00
2023-04-08T06:34:20.582Z,98738.00
2023-04-08T06:36:48.542Z,98749.00
2023-04-08T06:39:17.112Z,98748.00
2023-04-08T06:41:44.632Z,98745.00
2023-04-08T06:44:12.118Z,98746.00
2023-04-08T06:46:39.791Z,98753.00
2023-04-08T06:49:07.241Z,98741.00
2023-04-08T06:51:34.790Z,98746.00
2023-04-08T06:54:02.293Z,98748.00
2023-04-08T06:56:29.748Z,98757.00
2023-04-08T06:58:57.229Z,98756.00
2023-04-08T07:01:25.613Z,98750.00
2023-04-08T07:03:53.317Z,98762.00
2023-04-08T07:06:21.161Z,98764.00
2023-04-08T07:08:48.878Z,98762.00
2023-04-08T07:11:16.885Z,98757.00
2023-04-08T07:13:44.474Z,98760.00
2023-04-08T07:16:12.048Z,98770.00
2023-04-08T07:18:41.518Z,98766.00
2023-04-08T07:21:08.931Z,98765.00
2023-04-08T07:23:36.376Z,98765.00
2023-04-08T07:26:07.106Z,98768.00
2023-04-08T07:28:34.574Z,98773.00
2023-04-08T07:31:18.168Z,98770.00
2023-04-08T07:33:47.480Z,98774.00
2023-04-08T07:36:15.775Z,98782.00
2023-04-08T07:38:43.249Z,98780.00
2023-04-08T07:41:10.878Z,98772.00
2023-04-08T07:43:39.180Z,98777.00
2023-04-08T07:46:08.068Z,98772.00
2023-04-08T07:48:36.050Z,98782.00
2023-04-08T07:51:11.153Z,98779.00
2023-04-08T07:53:40.662Z,98792.00
2023-04-08T07:56:18.730Z,98796.00
2023-04-08T07:58:48.106Z,98797.00
2023-04-08T08:01:22.651Z,98793.00
2023-04-08T08:03:52.895Z,98796.00
2023-04-08T08:06:22.206Z,98802.00
2023-04-08T08:08:49.785Z,98786.00
2023-04-08T08:11:18.259Z,98786.00
2023-04-08T08:13:46.127Z,98799.00
2023-04-08T08:16:13.733Z,98799.00
2023-04-08T08:18:41.775Z,98793.00
2023-04-08T08:21:09.817Z,98793.00
2023-04-08T08:23:37.923Z,98803.00
2023-04-08T08:26:10.352Z,98801.00
2023-04-08T08:28:39.648Z,98801.00
2023-04-08T08:31:07.617Z,98806.00
2023-04-08T08:33:35.724Z,98819.00
2023-04-08T08:36:05.367Z,98809.00
2023-04-08T08:38:33.194Z,98813.00
2023-04-08T08:41:02.170Z,98811.00
2023-04-08T08:43:33.531Z,98806.00
2023-04-08T08:46:01.761Z,98818.00
2023-04-08T08:48:29.424Z,98814.00
2023-04-08T08:50:57.621Z,98822.00
2023-04-08T08:53:35.167Z,98814.00
2023-04-08T08:56:17.959Z,98814.00
2023-04-08T08:58:47.926Z,98818.00
2023-04-08T09:01:34.922Z,98824.00
2023-04-08T09:04:20.374Z,98818.00
2023-04-08T09:07:13.901Z,98821.00
2023-04-08T09:09:52.907Z,98821.00
2023-04-08T09:12:20.769Z,98827.00
2023-04-08T09:14:48.720Z,98822.00
2023-04-08T09:17:17.345Z,98821.00
2023-04-08T09:20:12.932Z,98826.00
2023-04-08T09:23:03.036Z,98829.00
2023-04-08T09:25:34.010Z,98826.00
2023-04-08T09:28:03.066Z,98826.00
2023-04-08T09:30:32.442Z,98833.00
2023-04-08T09:33:01.460Z,98830.00
2023-04-08T09:35:29.067Z,98828.00
2023-04-08T09:37:56.731Z,98831.00
2023-04-08T09:40:27.352Z,98830.00
2023-04-08T09:42:56.283Z,98834.00
2023-04-08T09:45:25.807Z,98837.00
2023-04-08T09:48:24.273Z,98834.00
2023-04-08T09:50:52.787Z,98841.00
2023-04-08T09:53:34.398Z,98834.00
2023-04-08T09:56:05.505Z,98840.00
2023-04-08T09:58:59.088Z,98846.00
2023-04-08T10:01:53.842Z,98851.00
2023-04-08T10:04:26.546Z,98850.00
2023-04-08T10:07:06.467Z,98848.00
2023-04-08T10:09:34.530Z,98848.00
2023-04-08T10:12:04.294Z,98849.00
2023-04-08T10:14:32.617Z,98844.00
2023-04-08T10:17:28.639Z,98852.00
2023-04-08T10:19:58.728Z,98839.00
2023-04-08T10:22:29.119Z,98847.00
2023-04-08T10:25:16.850Z,98834.00
2023-04-08T10:27:45.724Z,98837.00
2023-04-08T10:30:28.071Z,98836.00
2023-04-08T10:32:57.630Z,98843.00
2023-04-08T10:35:41.977Z,98838.00
2023-04-08T10:38:10.166Z,98830.00
2023-04-08T10:40:39.601Z,98834.00
2023-04-08T10:43:07.733Z,98833.00
2023-04-08T10:45:35.591Z,98833.00
2023-04-08T10:48:25.607Z,98836.00
2023-04-08T10:51:04.182Z,98833.00
2023-04-08T10:53:42.125Z,98835.00
2023-04-08T10:56:18.791Z,98833.00
2023-04-08T10:58:56.472Z,98829.00
2023-04-08T11:01:24.077Z,98840.00
2023-04-08T11:03:52.658Z,98827.00
2023-04-08T11:06:20.621Z,98834.00
2023-04-08T11:08:48.310Z,98831.00
2023-04-08T11:11:15.879Z,98831.00
2023-04-08T11:13:53.453Z,98826.00
2023-04-08T11:16:23.258Z,98834.00
2023-04-08T11:18:52.145Z,98831.00
2023-04-08T11:21:19.733Z,98836.00
2023-04-08T11:23:52.175Z,98827.00
2023-04-08T11:26:21.230Z,98824.00
2023-04-08T11:28:50.943Z,98822.00
2023-04-08T11:31:23.551Z,98824.00
2023-04-08T11:33:58.580Z,98822.00
2023-04-08T11:36:27.371Z,98817.00
2023-04-08T11:38:56.044Z,98822.00
2023-04-08T11:41:23.907Z,98813.00
2023-04-08T11:43:57.207Z,98816.00
2023-04-08T11:46:25.204Z,98811.00
2023-04-08T11:49:19.308Z,98802.00
2023-04-08T11:52:00.564Z,98804.00
2023-04-08T11:54:33.233Z,98803.00
2023-04-08T11:57:03.032Z,98809.00
2023-04-08T11:59:30.435Z,98803.00
2023-04-08T12:01:59.093Z,98797.00
2023-04-08T12:04:26.813Z,98792.00
2023-04-08T12:06:55.375Z,98795.00
2023-04-08T12:09:24.266Z,98805.00
2023-04-08T12:11:51.659Z,98797.00
2023-04-08T12:14:19.118Z,98802.00
2023-04-08T12:16:46.725Z,98795.00
2023-04-08T12:19:14.141Z,98807.00
2023-04-08T12:21:41.556Z,98815.00
2023-04-08T12:24:08.966Z,98803.00
2023-04-08T12:26:36.429Z,98806.00
2023-04-08T12:29:03.833Z,98798.00
2023-04-08T12:31:32.093Z,98796.00
2023-04-08T12:33:59.564Z,98803.00
2023-04-08T12:36:27.420Z,98804.00
2023-04-08T12:38:54.872Z,98801.00
2023-04-08T12:41:22.265Z,98799.00
2023-04-08T12:43:49.653Z,98799.00
2023-04-08T12:46:17.052Z,98795.00
2023-04-08T12:48:45.753Z,98808.00
2023-04-08T12:51:14.865Z,98796.00
2023-04-08T12:53:42.456Z,98801.00
2023-04-08T12:56:10.409Z,98804.00
2023-04-08T12:58:37.815Z,98805.00
2023-04-08T13:01:06.449Z,98805.00
2023-04-08T13:03:35.177Z,98802.00
2023-04-08T13:06:02.919Z,98803.00
2023-04-08T13:08:30.305Z,98786.00
2023-04-08T13:10:57.695Z,98787.00
2023-04-08T13:13:25.162Z,98782.00
2023-04-08T13:15:53.054Z,98783.00
2023-04-08T13:18:20.852Z,98779.00
2023-04-08T13:20:48.208Z,98780.00
2023-04-08T13:23:17.990Z,98773.00
2023-04-08T13:25:48.468Z,98784.00
2023-04-08T13:28:16.052Z,98793.00
2023-04-08T13:30:43.427Z,98792.00
2023-04-08T13:33:10.814Z,98797.00
2023-04-08T13:35:38.226Z,98785.00
2023-04-08T13:38:05.606Z,98793.00
2023-04-08T13:40:33.420Z,98784.00
2023-04-08T13:43:00.857Z,98795.00
2023-04-08T13:45:28.260Z,98796.00
2023-04-08T13:47:56.939Z,98796.00
2023-04-08T13:50:24.522Z,98795.00
2023-04-08T13:52:51.916Z,98782.00
2023-04-08T13:55:19.929Z,98792.00
2023-04-08T13:57:47.333Z,98798.00
2023-04-08T14:00:15.231Z,98795.00
2023-04-08T14:02:42.809Z,98797.00
2023-04-08T14:05:10.474Z,98794.00
2023-04-08T14:07:37.913Z,98795.00
2023-04-08T14:10:06.592Z,98796.00
2023-04-08T14:12:34.011Z,98792.00
2023-04-08T14:15:02.920Z,98783.00
2023-04-08T14:17:30.529Z,98784.00
2023-04-08T14:19:59.692Z,98782.00
2023-04-08T14:22:27.118Z,98782.00
2023-04-08T14:24:54.536Z,98791.00
2023-04-08T14:27:21.940Z,98785.00
2023-04-08T14:29:49.334Z,98778.00
2023-04-08T14:32:17.024Z,98773.00
2023-04-08T14:34:44.853Z,98774.00
2023-04-08T14:37:12.368Z,98779.00
2023-04-08T14:39:39.764Z,98778.00
2023-04-08T14:42:07.965Z,98775.00
2023-04-08T14:44:35.485Z,98776.00
2023-04-08T14:47:02.856Z,98778.00
2023-04-08T14:49:30.295Z,98784.00
2023-04-08T14:51:57.669Z,98776.00
2023-04-08T14:54:25.041Z,98775.00
2023-04-08T14:56:52.461Z,98779.00
2023-04-08T14:59:19.817Z,98773.00
2023-04-08T15:01:47.395Z,98774.00
2023-04-08T15:04:14.903Z,98776.00
2023-04-08T15:06:42.890Z,98772.00
2023-04-08T15:09:10.383Z,98773.00
2023-04-08T15:11:37.892Z,98776.00
2023-04-08T15:14:05.531Z,98774.00
2023-04-08T15:16:33.179Z,98775.00
2023-04-08T15:19:00.803Z,98781.00
2023-04-08T15:21:28.290Z,98777.00
2023-04-08T15:23:55.875Z,98773.00
2023-04-08T15:26:24.519Z,98770.00
2023-04-08T15:28:54.597Z,98765.00
2023-04-08T15:31:22.025Z,98772.00
2023-04-08T15:33:49.632Z,98768.00
2023-04-08T15:36:20.127Z,98765.00
2023-04-08T15:38:48.624Z,98769.00
2023-04-08T15:41:19.039Z,98772.00
2023-04-08T15:43:47.054Z,98777.00
2023-04-08T15:46:24.221Z,98779.00
2023-04-08T15:48:52.035Z,98769.00
2023-04-08T15:51:20.506Z,98785.00
2023-04-08T15:53:47.987Z,98772.00
2023-04-08T15:56:16.765Z,98770.00
2023-04-08T15:58:46.307Z,98774.00
2023-04-08T16:01:14.197Z,98777.00
2023-04-08T16:03:42.242Z,98779.00
2023-04-08T16:06:09.711Z,98786.00
2023-04-08T16:08:37.275Z,98782.00
2023-04-08T16:11:07.117Z,98784.00
2023-04-08T16:13:35.049Z,98787.00
2023-04-08T16:16:03.682Z,98786.00
2023-04-08T16:18:31.454Z,98794.00
2023-04-08T16:20:58.940Z,98787.00
2023-04-08T16:23:26.616Z,98785.00
2023-04-08T16:25:54.105Z,98793.00
2023-04-08T16:28:22.220Z,98792.00
2023-04-08T16:30:49.631Z,98786.00
2023-04-08T16:33:17.100Z,98787.00
2023-04-08T16:35:44.620Z,98791.00
2023-04-08T16:38:12.291Z,98799.00
2023-04-08T16:40:39.738Z,98800.00
2023-04-08T16:43:07.274Z,98804.00
2023-04-08T16:45:34.802Z,98804.00
2023-04-08T16:48:02.654Z,98805.00
2023-04-08T16:50:30.074Z,98800.00
2023-04-08T16:52:57.765Z,98804.00
2023-04-08T16:55:25.212Z,98803.00
2023-04-08T16:57:52.964Z,98817.00
2023-04-08T17:00:21.309Z,98802.00
2023-04-08T17:02:49.080Z,98813.00
2023-04-08T17:05:17.020Z,98807.00
2023-04-08T17:07:45.632Z,98809.00
2023-04-08T17:10:13.483Z,98806.00
2023-04-08T17:12:41.734Z,98808.00
2023-04-08T17:15:10.904Z,98821.00
2023-04-08T17:17:38.519Z,98819.00
2023-04-08T17:20:07.643Z,98815.00
2023-04-08T17:22:35.075Z,98828.00
2023-04-08T17:25:02.640Z,98825.00
2023-04-08T17:27:30.100Z,98830.00
2023-04-08T17:29:58.064Z,98826.00
2023-04-08T17:32:27.958Z,98821.00
2023-04-08T17:35:06.869Z,98833.00
2023-04-08T17:37:36.763Z,98832.00
2023-04-08T17:40:08.015Z,98835.00
2023-04-08T17:42:44.820Z,98838.00
2023-04-08T17:45:13.734Z,98843.00
2023-04-08T17:47:44.579Z,98844.00
2023-04-08T17:50:13.584Z,98851.00
2023-04-08T17:52:46.855Z,98856.00
2023-04-08T17:55:16.115Z,98860.00
2023-04-08T17:57:45.509Z,98867.00
2023-04-08T18:00:17.447Z,98858.00
2023-04-08T18:02:48.918Z,98859.00
2023-04-08T18:05:19.157Z,98862.00
2023-04-08T18:07:48.039Z,98866.00
2023-04-08T18:10:18.196Z,98878.00
2023-04-08T18:12:49.014Z,98875.00
2023-04-08T18:15:22.855Z,98875.00
2023-04-08T18:17:56.659Z,98880.00
2023-04-08T18:20:34.708Z,98881.00
2023-04-08T18:23:05.509Z,98884.00
2023-04-08T18:25:59.579Z,98880.00
2023-04-08T18:28:31.051Z,98894.00
2023-04-08T18:31:11.071Z,98898.00
2023-04-08T18:33:54.266Z,98898.00
2023-04-08T18:36:35.190Z,98890.00
2023-04-08T18:39:12.223Z,98909.00
2023-04-08T18:41:47.453Z,98910.00
2023-04-08T18:44:17.580Z,98906.00
2023-04-08T18:46:47.187Z,98910.00
2023-04-08T18:49:38.418Z,98918.00
2023-04-08T18:52:12.074Z,98910.00
2023-04-08T18:54:41.102Z,98912.00
2023-04-08T18:57:27.864Z,98918.00
2023-04-08T18:59:56.898Z,98919.00
2023-04-08T19:02:33.648Z,98918.00
2023-04-08T19:05:03.172Z,98929.00
2023-04-08T19:07:32.162Z,98930.00
2023-04-08T19:10:01.893Z,98926.00
2023-04-08T19:12:51.207Z,98925.00
2023-04-08T19:15:32.074Z,98927.00
2023-04-08T19:18:02.990Z,98933.00
2023-04-08T19:20:32.383Z,98935.00
2023-04-08T19:23:03.617Z,98918.00
2023-04-08T19:25:33.206Z,98924.00
2023-04-08T19:28:02.148Z,98935.00
2023-04-08T19:30:30.790Z,98933.00
2023-04-08T19:33:00.248Z,98930.00
2023-04-08T19:35:30.180Z,98932.00
2023-04-08T19:37:59.111Z,98931.00
2023-04-08T19:40:28.513Z,98938.00
2023-04-08T19:42:57.836Z,98943.00
2023-04-08T19:45:27.740Z,98944.00
2023-04-08T19:48:11.664Z,98939.00
2023-04-08T19:50:42.526Z,98951.00
2023-04-08T19:53:11.690Z,98950.00
2023-04-08T19:55:41.135Z,98953.00
2023-04-08T19:58:09.884Z,98937.00
2023-04-08T20:00:39.325Z,98943.00
2023-04-08T20:03:11.523Z,98951.00
2023-04-08T20:05:41.556Z,98949.00
2023-04-08T20:08:10.677Z,98942.00
2023-04-08T20:10:46.929Z,98937.00
2023-04-08T20:13:17.574Z,98944.00
2023-04-08T20:15:51.103Z,98932.00
2023-04-08T20:18:31.234Z,98932.00
2023-04-08T20:21:09.207Z,98946.00
2023-04-08T20:23:45.079Z,98938.00
2023-04-08T20:26:14.422Z,98944.00
2023-04-08T20:29:05.696Z,98939.00
2023-04-08T20:31:40.080Z,98932.00
2023-04-08T20:34:09.072Z,98936.00
2023-04-08T20:36:44.282Z,98927.00
2023-04-08T20:39:13.226Z,98943.00
2023-04-08T20:41:41.757Z,98940.00
2023-04-08T20:44:11.786Z,98932.00
2023-04-08T20:46:40.666Z,98922.00
2023-04-08T20:49:11.687Z,98937.00
2023-04-08T20:51:42.135Z,98939.00
2023-04-08T20:54:11.092Z,98939.00
2023-04-08T20:56:42.965Z,98940.00
2023-04-08T21:00:37.578Z,98939.00
2023-04-08T21:03:06.001Z,98918.00
2023-04-08T21:05:38.717Z,98937.00
2023-04-08T21:08:13.148Z,98937.00
2023-04-08T21:11:09.446Z,98940.00
2023-04-08T21:13:51.544Z,98942.00
2023-04-08T21:16:20.083Z,98935.00
2023-04-08T21:19:56.587Z,98941.00
2023-04-08T21:22:25.165Z,98933.00
2023-04-08T21:24:53.948Z,98926.00
2023-04-08T21:28:10.289Z,98939.00
2023-04-08T21:31:12.652Z,98940.00
2023-04-08T21:33:42.002Z,98933.00
2023-04-08T21:36:11.341Z,98934.00
2023-04-08T21:38:42.024Z,98929.00
2023-04-08T21:41:24.723Z,98932.00
2023-04-08T21:44:19.562Z,98935.00
2023-04-08T21:50:46.035Z,98934.00
2023-04-08T21:53:16.303Z,98936.00
2023-04-08T21:56:15.322Z,98937.00
2023-04-08T21:58:43.614Z,98930.00
2023-04-08T22:01:15.451Z,98948.00
2023-04-08T22:03:46.280Z,98940.00
2023-04-08T22:09:24.474Z,98934.00
2023-04-08T22:11:53.191Z,98936.00
2023-04-08T22:14:24.697Z,98941.00
2023-04-08T22:16:52.506Z,98939.00
2023-04-08T22:19:21.130Z,98935.00
